sensor_id;sensor_type;location;lat;lon;timestamp;pressure;altitude;pressure_sealevel;temperature;humidity
5679;BME280;2862;52.560;13.566;2022-12-17T00:01:38;101223.72;;;-1.88;100.00
5679;BME280;2862;52.560;13.566;2022-12-17T00:11:59;101241.00;;;-1.81;100.00
5679;BME280;2862;52.560;13.566;2022-12-17T00:22:21;101246.38;;;-1.87;100.00
5679;BME280;2862;52.560;13.566;2022-12-17T00:32:42;101253.56;;;-1.95;100.00
5679;BME280;2862;52.560;13.566;2022-12-17T00:43:05;101261.31;;;-1.89;100.00
5679;BME280;2862;52.560;13.566;2022-12-17T00:53:27;101266.22;;;-1.75;100.00
5679;BME280;2862;52.560;13.566;2022-12-17T01:03:49;101277.84;;;-1.87;100.00
5679;BME280;2862;52.560;13.566;2022-12-17T01:14:10;101287.94;;;-1.70;100.00
5679;BME280;2862;52.560;13.566;2022-12-17T01:24:32;101292.31;;;-1.71;100.00
5679;BME280;2862;52.560;13.566;2022-12-17T01:34:53;101308.06;;;-1.72;100.00
5679;BME280;2862;52.560;13.566;2022-12-17T01:45:15;101310.56;;;-1.66;100.00
5679;BME280;2862;52.560;13.566;2022-12-17T01:55:37;101310.91;;;-1.81;100.00
5679;BME280;2862;52.560;13.566;2022-12-17T02:06:02;101304.72;;;-1.79;100.00
5679;BME280;2862;52.560;13.566;2022-12-17T02:16:28;101314.84;;;-1.64;100.00
5679;BME280;2862;52.560;13.566;2022-12-17T02:26:51;101315.88;;;-1.69;100.00
5679;BME280;2862;52.560;13.566;2022-12-17T02:37:13;101317.72;;;-1.74;100.00
5679;BME280;2862;52.560;13.566;2022-12-17T02:47:37;101337.06;;;-1.80;100.00
5679;BME280;2862;52.560;13.566;2022-12-17T02:57:57;101345.16;;;-1.91;100.00
5679;BME280;2862;52.560;13.566;2022-12-17T03:08:19;101352.13;;;-1.90;100.00
5679;BME280;2862;52.560;13.566;2022-12-17T03:18:40;101359.97;;;-1.88;100.00
5679;BME280;2862;52.560;13.566;2022-12-17T03:28:59;101358.25;;;-1.89;100.00
5679;BME280;2862;52.560;13.566;2022-12-17T03:39:19;101370.97;;;-1.72;100.00
5679;BME280;2862;52.560;13.566;2022-12-17T03:49:41;101378.84;;;-1.72;100.00
5679;BME280;2862;52.560;13.566;2022-12-17T04:00:03;101385.34;;;-1.89;100.00
5679;BME280;2862;52.560;13.566;2022-12-17T04:10:25;101409.94;;;-1.97;100.00
5679;BME280;2862;52.560;13.566;2022-12-17T04:20:46;101424.75;;;-1.95;100.00
5679;BME280;2862;52.560;13.566;2022-12-17T04:31:08;101422.88;;;-1.90;100.00
5679;BME280;2862;52.560;13.566;2022-12-17T04:41:29;101430.75;;;-1.90;100.00
5679;BME280;2862;52.560;13.566;2022-12-17T04:51:51;101436.09;;;-1.94;100.00
5679;BME280;2862;52.560;13.566;2022-12-17T05:02:12;101440.59;;;-2.01;100.00
5679;BME280;2862;52.560;13.566;2022-12-17T05:12:55;101446.72;;;-2.00;100.00
5679;BME280;2862;52.560;13.566;2022-12-17T05:23:15;101463.84;;;-1.84;100.00
5679;BME280;2862;52.560;13.566;2022-12-17T05:33:37;101482.03;;;-1.76;100.00
5679;BME280;2862;52.560;13.566;2022-12-17T05:43:58;101486.19;;;-1.65;100.00
5679;BME280;2862;52.560;13.566;2022-12-17T05:54:20;101495.28;;;-1.82;100.00
5679;BME280;2862;52.560;13.566;2022-12-17T06:04:41;101510.06;;;-1.80;100.00
5679;BME280;2862;52.560;13.566;2022-12-17T06:15:04;101513.88;;;-1.95;100.00
5679;BME280;2862;52.560;13.566;2022-12-17T06:25:25;101532.44;;;-2.08;100.00
5679;BME280;2862;52.560;13.566;2022-12-17T06:36:02;101537.09;;;-2.24;100.00
5679;BME280;2862;52.560;13.566;2022-12-17T06:46:23;101566.00;;;-2.30;100.00
5679;BME280;2862;52.560;13.566;2022-12-17T06:56:45;101590.28;;;-2.21;100.00
5679;BME280;2862;52.560;13.566;2022-12-17T07:07:06;101605.06;;;-2.17;100.00
5679;BME280;2862;52.560;13.566;2022-12-17T07:17:28;101615.56;;;-2.17;100.00
5679;BME280;2862;52.560;13.566;2022-12-17T07:28:01;101622.66;;;-2.25;100.00
5679;BME280;2862;52.560;13.566;2022-12-17T07:38:22;101627.69;;;-2.13;100.00
5679;BME280;2862;52.560;13.566;2022-12-17T07:48:43;101640.81;;;-2.14;100.00
5679;BME280;2862;52.560;13.566;2022-12-17T07:59:06;101661.84;;;-2.17;100.00
5679;BME280;2862;52.560;13.566;2022-12-17T08:09:38;101679.06;;;-2.02;100.00
5679;BME280;2862;52.560;13.566;2022-12-17T08:20:00;101685.47;;;-1.66;100.00
5679;BME280;2862;52.560;13.566;2022-12-17T08:30:20;101688.16;;;-1.23;97.22
5679;BME280;2862;52.560;13.566;2022-12-17T08:40:42;101697.94;;;-1.80;98.42
5679;BME280;2862;52.560;13.566;2022-12-17T08:51:03;101704.09;;;-1.83;98.28
5679;BME280;2862;52.560;13.566;2022-12-17T09:01:25;101706.69;;;-1.81;98.39
5679;BME280;2862;52.560;13.566;2022-12-17T09:11:47;101719.78;;;-1.81;100.00
5679;BME280;2862;52.560;13.566;2022-12-17T09:22:08;101732.56;;;-1.62;100.00
5679;BME280;2862;52.560;13.566;2022-12-17T09:32:29;101738.56;;;-1.53;100.00
5679;BME280;2862;52.560;13.566;2022-12-17T09:42:56;101739.56;;;-1.62;100.00
5679;BME280;2862;52.560;13.566;2022-12-17T09:53:20;101751.78;;;-1.59;100.00
5679;BME280;2862;52.560;13.566;2022-12-17T10:03:44;101766.75;;;-1.66;100.00
5679;BME280;2862;52.560;13.566;2022-12-17T10:14:12;101760.41;;;-1.53;97.78
5679;BME280;2862;52.560;13.566;2022-12-17T10:24:44;101770.75;;;-1.45;96.52
5679;BME280;2862;52.560;13.566;2022-12-17T10:35:14;101778.56;;;-1.41;96.26
5679;BME280;2862;52.560;13.566;2022-12-17T10:45:37;101786.56;;;-1.50;96.35
5679;BME280;2862;52.560;13.566;2022-12-17T10:55:57;101796.78;;;-1.89;97.70
5679;BME280;2862;52.560;13.566;2022-12-17T11:06:22;101799.47;;;-1.93;98.62
5679;BME280;2862;52.560;13.566;2022-12-17T11:16:48;101806.25;;;-1.80;98.26
5679;BME280;2862;52.560;13.566;2022-12-17T11:27:17;101811.22;;;-1.62;97.51
5679;BME280;2862;52.560;13.566;2022-12-17T11:37:42;101821.06;;;-1.76;97.10
5679;BME280;2862;52.560;13.566;2022-12-17T11:48:13;101830.41;;;-1.58;97.02
5679;BME280;2862;52.560;13.566;2022-12-17T11:58:51;101830.97;;;-1.39;96.01
5679;BME280;2862;52.560;13.566;2022-12-17T12:09:17;101831.84;;;-1.37;95.22
5679;BME280;2862;52.560;13.566;2022-12-17T12:19:45;101829.31;;;-1.45;96.33
5679;BME280;2862;52.560;13.566;2022-12-17T12:30:14;101843.41;;;-1.49;95.29
5679;BME280;2862;52.560;13.566;2022-12-17T12:40:39;101861.19;;;-1.71;96.73
5679;BME280;2862;52.560;13.566;2022-12-17T12:51:12;101874.94;;;-1.55;95.46
5679;BME280;2862;52.560;13.566;2022-12-17T13:01:37;101887.38;;;-1.69;95.66
5679;BME280;2862;52.560;13.566;2022-12-17T13:12:14;101887.31;;;-1.65;94.70
5679;BME280;2862;52.560;13.566;2022-12-17T13:22:30;101892.03;;;-1.91;95.96
5679;BME280;2862;52.560;13.566;2022-12-17T13:32:42;101900.00;;;-1.99;96.89
5679;BME280;2862;52.560;13.566;2022-12-17T13:42:48;101909.50;;;-1.90;96.49
5679;BME280;2862;52.560;13.566;2022-12-17T13:52:53;101920.97;;;-1.99;96.61
5679;BME280;2862;52.560;13.566;2022-12-17T14:03:08;101940.09;;;-1.91;96.18
5679;BME280;2862;52.560;13.566;2022-12-17T14:13:14;101940.94;;;-1.90;96.71
5679;BME280;2862;52.560;13.566;2022-12-17T14:23:22;101951.22;;;-1.73;96.11
5679;BME280;2862;52.560;13.566;2022-12-17T14:33:31;101953.13;;;-1.83;96.42
5679;BME280;2862;52.560;13.566;2022-12-17T14:43:34;101952.47;;;-2.03;97.02
5679;BME280;2862;52.560;13.566;2022-12-17T14:53:38;101971.56;;;-1.92;96.59
5679;BME280;2862;52.560;13.566;2022-12-17T15:03:43;101987.25;;;-1.89;96.19
5679;BME280;2862;52.560;13.566;2022-12-17T15:13:49;101988.31;;;-2.05;100.00
5679;BME280;2862;52.560;13.566;2022-12-17T15:23:56;101991.97;;;-2.22;98.39
5679;BME280;2862;52.560;13.566;2022-12-17T15:34:00;102011.34;;;-2.38;98.31
5679;BME280;2862;52.560;13.566;2022-12-17T15:44:03;102024.47;;;-2.43;98.65
5679;BME280;2862;52.560;13.566;2022-12-17T15:54:08;102021.56;;;-2.14;100.00
5679;BME280;2862;52.560;13.566;2022-12-17T16:04:11;102037.25;;;-2.06;99.93
5679;BME280;2862;52.560;13.566;2022-12-17T16:14:18;102052.97;;;-2.09;100.00
5679;BME280;2862;52.560;13.566;2022-12-17T16:24:21;102036.19;;;-1.88;99.21
5679;BME280;2862;52.560;13.566;2022-12-17T16:34:25;102040.38;;;-1.75;97.27
5679;BME280;2862;52.560;13.566;2022-12-17T16:44:28;102049.28;;;-1.88;98.24
5679;BME280;2862;52.560;13.566;2022-12-17T16:54:33;102061.44;;;-1.82;98.44
5679;BME280;2862;52.560;13.566;2022-12-17T17:04:36;102055.22;;;-1.74;98.62
5679;BME280;2862;52.560;13.566;2022-12-17T17:14:41;102069.72;;;-2.25;97.55
5679;BME280;2862;52.560;13.566;2022-12-17T17:24:44;102069.09;;;-2.56;98.24
5679;BME280;2862;52.560;13.566;2022-12-17T17:34:48;102088.34;;;-2.65;98.88
5679;BME280;2862;52.560;13.566;2022-12-17T17:44:51;102105.78;;;-2.61;98.46
5679;BME280;2862;52.560;13.566;2022-12-17T17:54:55;102113.63;;;-2.64;99.22
5679;BME280;2862;52.560;13.566;2022-12-17T18:04:58;102110.09;;;-2.55;99.22
5679;BME280;2862;52.560;13.566;2022-12-17T18:15:03;102113.41;;;-2.30;98.60
5679;BME280;2862;52.560;13.566;2022-12-17T18:25:14;102124.00;;;-2.46;98.25
5679;BME280;2862;52.560;13.566;2022-12-17T18:35:19;102128.56;;;-2.74;98.35
5679;BME280;2862;52.560;13.566;2022-12-17T18:45:21;102134.63;;;-2.70;98.06
5679;BME280;2862;52.560;13.566;2022-12-17T18:55:26;102151.19;;;-2.70;97.50
5679;BME280;2862;52.560;13.566;2022-12-17T19:05:29;102160.75;;;-2.59;97.74
5679;BME280;2862;52.560;13.566;2022-12-17T19:15:33;102176.56;;;-2.82;98.13
5679;BME280;2862;52.560;13.566;2022-12-17T19:25:36;102183.66;;;-3.10;99.16
5679;BME280;2862;52.560;13.566;2022-12-17T19:35:40;102191.56;;;-3.29;100.00
5679;BME280;2862;52.560;13.566;2022-12-17T19:45:43;102190.69;;;-3.18;99.39
5679;BME280;2862;52.560;13.566;2022-12-17T19:55:47;102207.25;;;-3.26;99.73
5679;BME280;2862;52.560;13.566;2022-12-17T20:05:50;102202.88;;;-3.24;100.00
5679;BME280;2862;52.560;13.566;2022-12-17T20:16:01;102216.88;;;-3.63;100.00
5679;BME280;2862;52.560;13.566;2022-12-17T20:26:07;102248.28;;;-3.70;100.00
5679;BME280;2862;52.560;13.566;2022-12-17T20:36:13;102243.91;;;-3.49;99.78
5679;BME280;2862;52.560;13.566;2022-12-17T20:46:18;102248.25;;;-3.40;98.40
5679;BME280;2862;52.560;13.566;2022-12-17T20:56:25;102252.63;;;-3.54;98.47
5679;BME280;2862;52.560;13.566;2022-12-17T21:06:30;102264.81;;;-3.47;97.75
5679;BME280;2862;52.560;13.566;2022-12-17T21:16:40;102260.44;;;-3.80;97.57
5679;BME280;2862;52.560;13.566;2022-12-17T21:26:45;102269.16;;;-3.61;97.12
5679;BME280;2862;52.560;13.566;2022-12-17T21:36:50;102287.44;;;-3.80;95.64
5679;BME280;2862;52.560;13.566;2022-12-17T21:46:54;102291.75;;;-4.09;97.50
5679;BME280;2862;52.560;13.566;2022-12-17T21:57:01;102294.34;;;-4.20;98.89
5679;BME280;2862;52.560;13.566;2022-12-17T22:07:05;102299.63;;;-3.94;96.87
5679;BME280;2862;52.560;13.566;2022-12-17T22:17:09;102307.44;;;-4.05;96.79
5679;BME280;2862;52.560;13.566;2022-12-17T22:27:13;102317.81;;;-4.29;97.59
5679;BME280;2862;52.560;13.566;2022-12-17T22:37:21;102329.88;;;-4.59;98.74
5679;BME280;2862;52.560;13.566;2022-12-17T22:47:23;102346.47;;;-4.43;97.92
5679;BME280;2862;52.560;13.566;2022-12-17T22:57:29;102367.47;;;-4.23;96.30
5679;BME280;2862;52.560;13.566;2022-12-17T23:07:33;102363.06;;;-4.33;95.05
5679;BME280;2862;52.560;13.566;2022-12-17T23:17:37;102360.34;;;-4.55;94.90
5679;BME280;2862;52.560;13.566;2022-12-17T23:27:41;102375.06;;;-4.67;95.36
5679;BME280;2862;52.560;13.566;2022-12-17T23:37:46;102375.97;;;-4.61;94.57
5679;BME280;2862;52.560;13.566;2022-12-17T23:47:50;102376.88;;;-4.59;96.00
5679;BME280;2862;52.560;13.566;2022-12-17T23:57:56;102380.28;;;-4.66;95.71
